createdAt,value
2022-12-23T00:00:13.353Z,97385.34
2022-12-23T00:01:15.227Z,97386.44
2022-12-23T00:02:16.693Z,97387.09
2022-12-23T00:03:18.160Z,97385.66
2022-12-23T00:04:19.510Z,97383.63
2022-12-23T00:05:20.807Z,97379.41
2022-12-23T00:06:22.050Z,97376.88
2022-12-23T00:07:23.324Z,97385.59
2022-12-23T00:08:27.559Z,97381.75
2022-12-23T00:09:28.803Z,97382.84
2022-12-23T00:10:30.176Z,97380.50
2022-12-23T00:11:31.459Z,97374.44
2022-12-23T00:12:32.703Z,97375.00
2022-12-23T00:13:33.972Z,97382.50
2022-12-23T00:14:35.227Z,97381.75
2022-12-23T00:15:36.523Z,97380.81
2022-12-23T00:16:37.956Z,97386.13
2022-12-23T00:17:45.469Z,97384.25
2022-12-23T00:18:46.696Z,97382.94
2022-12-23T00:19:47.905Z,97383.72
2022-12-23T00:20:49.164Z,97384.50
2022-12-23T00:21:50.374Z,97379.09
2022-12-23T00:22:51.594Z,97382.84
2022-12-23T00:23:52.798Z,97383.63
2022-12-23T00:24:54.133Z,97387.47
2022-12-23T00:25:55.403Z,97375.34
2022-12-23T00:26:56.617Z,97377.34
2022-12-23T00:27:57.862Z,97378.44
2022-12-23T00:28:59.098Z,97378.75
2022-12-23T00:30:00.316Z,97378.44
2022-12-23T00:31:02.607Z,97373.13
2022-12-23T00:32:04.062Z,97371.59
2022-12-23T00:33:05.366Z,97370.50
2022-12-23T00:34:06.617Z,97362.56
2022-12-23T00:35:08.029Z,97375.47
2022-12-23T00:36:14.070Z,97361.78
2022-12-23T00:37:15.364Z,97373.13
2022-12-23T00:38:17.428Z,97366.31
2022-12-23T00:39:18.709Z,97367.84
2022-12-23T00:40:20.047Z,97367.84
2022-12-23T00:41:21.281Z,97373.13
2022-12-23T00:42:22.522Z,97370.97
2022-12-23T00:43:23.868Z,97372.50
2022-12-23T00:44:25.216Z,97364.13
2022-12-23T00:45:26.620Z,97363.31
2022-12-23T00:46:28.023Z,97370.97
2022-12-23T00:47:29.367Z,97361.47
2022-12-23T00:48:30.597Z,97373.59
2022-12-23T00:49:31.836Z,97369.41
2022-12-23T00:50:35.215Z,97371.59
2022-12-23T00:51:36.501Z,97377.66
2022-12-23T00:52:37.763Z,97372.38
2022-12-23T00:53:38.948Z,97376.13
2022-12-23T00:54:40.195Z,97375.34
2022-12-23T00:55:41.488Z,97384.50
2022-12-23T00:56:42.718Z,97375.28
2022-12-23T00:57:43.945Z,97380.59
2022-12-23T00:58:45.235Z,97387.41
2022-12-23T00:59:46.489Z,97380.59
2022-12-23T01:00:47.810Z,97385.53
2022-12-23T01:01:49.302Z,97388.53
2022-12-23T01:02:50.826Z,97391.16
2022-12-23T01:03:52.221Z,97383.22
2022-12-23T01:04:53.479Z,97385.09
2022-12-23T01:05:57.196Z,97381.03
2022-12-23T01:06:58.676Z,97388.19
2022-12-23T01:07:59.928Z,97386.47
2022-12-23T01:09:01.148Z,97386.91
2022-12-23T01:10:02.385Z,97382.38
2022-12-23T01:11:09.311Z,97388.78
2022-12-23T01:12:10.583Z,97391.09
2022-12-23T01:13:11.852Z,97398.72
2022-12-23T01:14:13.121Z,97401.03
2022-12-23T01:15:14.416Z,97407.09
2022-12-23T01:16:17.848Z,97406.34
2022-12-23T01:17:19.431Z,97400.72
2022-12-23T01:18:20.717Z,97406.00
2022-12-23T01:19:22.005Z,97408.34
2022-12-23T01:20:23.497Z,97401.63
2022-12-23T01:21:24.702Z,97417.50
2022-12-23T01:22:25.956Z,97406.91
2022-12-23T01:23:27.211Z,97407.69
2022-12-23T01:24:32.066Z,97409.56
2022-12-23T01:25:33.402Z,97406.59
2022-12-23T01:26:34.896Z,97409.25
2022-12-23T01:27:36.131Z,97406.59
2022-12-23T01:28:37.396Z,97403.28
2022-12-23T01:29:38.619Z,97409.38
2022-12-23T01:30:39.893Z,97409.06
2022-12-23T01:31:41.146Z,97402.34
2022-12-23T01:32:42.415Z,97408.41
2022-12-23T01:33:43.671Z,97412.16
2022-12-23T01:34:44.999Z,97413.38
2022-12-23T01:35:46.359Z,97413.81
2022-12-23T01:36:47.615Z,97410.06
2022-12-23T01:37:48.877Z,97423.66
2022-12-23T01:38:50.307Z,97423.31
2022-12-23T01:39:51.565Z,97422.00
2022-12-23T01:40:52.813Z,97430.28
2022-12-23T01:41:54.040Z,97432.59
2022-12-23T01:42:55.300Z,97421.72
2022-12-23T01:43:56.504Z,97427.00
2022-12-23T01:44:59.433Z,97439.16
2022-12-23T01:46:00.704Z,97438.69
2022-12-23T01:47:11.569Z,97437.13
2022-12-23T01:48:15.553Z,97434.94
2022-12-23T01:49:16.792Z,97425.59
2022-12-23T01:50:41.336Z,97417.97
2022-12-23T01:51:42.785Z,97428.25
2022-12-23T01:52:46.996Z,97420.63
2022-12-23T01:53:50.298Z,97425.59
2022-12-23T01:54:51.684Z,97424.63
2022-12-23T01:55:55.872Z,97424.75
2022-12-23T01:56:58.173Z,97427.06
2022-12-23T01:58:10.080Z,97430.97
2022-12-23T01:59:14.086Z,97438.91
2022-12-23T02:00:15.751Z,97432.06
2022-12-23T02:01:18.976Z,97430.63
2022-12-23T02:02:21.227Z,97440.44
2022-12-23T02:03:22.696Z,97442.00
2022-12-23T02:04:25.184Z,97449.16
2022-12-23T02:05:26.490Z,97445.88
2022-12-23T02:06:30.625Z,97452.72
2022-12-23T02:07:32.016Z,97445.22
2022-12-23T02:08:33.290Z,97453.94
2022-12-23T02:09:36.209Z,97457.19
2022-12-23T02:10:57.712Z,97449.69
2022-12-23T02:12:24.080Z,97452.47
2022-12-23T02:13:31.260Z,97463.28
2022-12-23T02:14:32.526Z,97466.06
2022-12-23T02:15:41.512Z,97463.84
2022-12-23T02:16:50.296Z,97462.88
2022-12-23T02:17:51.559Z,97464.91
2022-12-23T02:19:10.545Z,97472.50
2022-12-23T02:20:29.174Z,97468.56
2022-12-23T02:21:41.866Z,97466.78
2022-12-23T02:22:58.440Z,97472.22
2022-12-23T02:24:02.390Z,97485.63
2022-12-23T02:25:12.581Z,97482.28
2022-12-23T02:26:28.839Z,97490.72
2022-12-23T02:27:31.670Z,97499.09
2022-12-23T02:28:39.187Z,97494.56
2022-12-23T02:29:59.219Z,97485.41
2022-12-23T02:31:06.147Z,97495.50
2022-12-23T02:32:24.725Z,97493.28
2022-12-23T02:33:34.977Z,97491.75
2022-12-23T02:34:40.256Z,97495.94
2022-12-23T02:36:00.262Z,97495.16
2022-12-23T02:37:16.883Z,97496.06
2022-12-23T02:38:25.969Z,97496.50
2022-12-23T02:39:30.339Z,97497.41
2022-12-23T02:40:38.560Z,97501.72
2022-12-23T02:41:57.134Z,97503.16
2022-12-23T02:43:06.013Z,97509.25
2022-12-23T02:44:15.277Z,97500.06
2022-12-23T02:45:24.887Z,97513.66
2022-12-23T02:46:41.273Z,97507.25
2022-12-23T02:47:51.941Z,97507.66
2022-12-23T02:49:12.976Z,97499.41
2022-12-23T02:50:17.099Z,97509.25
2022-12-23T02:51:21.612Z,97515.09
2022-12-23T02:52:26.459Z,97518.66
2022-12-23T02:53:30.605Z,97512.66
2022-12-23T02:54:34.767Z,97517.22
2022-12-23T02:55:38.199Z,97526.97
2022-12-23T02:56:41.966Z,97521.56
2022-12-23T02:57:45.346Z,97520.13
2022-12-23T02:58:53.299Z,97518.13
2022-12-23T02:59:54.737Z,97512.69
2022-12-23T03:00:58.025Z,97524.53
2022-12-23T03:02:00.632Z,97515.81
2022-12-23T03:03:02.381Z,97510.91
2022-12-23T03:04:06.560Z,97514.81
2022-12-23T03:05:26.344Z,97518.66
2022-12-23T03:06:39.203Z,97527.75
2022-12-23T03:07:42.739Z,97529.09
2022-12-23T03:08:44.538Z,97531.94
2022-12-23T03:09:51.852Z,97525.75
2022-12-23T03:10:56.133Z,97521.53
2022-12-23T03:12:05.450Z,97522.31
2022-12-23T03:13:25.577Z,97531.41
2022-12-23T03:14:33.020Z,97525.00
2022-12-23T03:15:34.358Z,97531.28
2022-12-23T03:16:53.657Z,97527.41
2022-12-23T03:18:13.556Z,97535.28
2022-12-23T03:19:26.145Z,97539.38
2022-12-23T03:20:33.241Z,97544.56
2022-12-23T03:21:42.161Z,97541.59
2022-12-23T03:22:50.517Z,97542.25
2022-12-23T03:23:55.961Z,97540.47
2022-12-23T03:25:06.644Z,97542.91
2022-12-23T03:26:19.270Z,97540.03
2022-12-23T03:27:38.108Z,97540.78
2022-12-23T03:28:42.811Z,97542.22
2022-12-23T03:29:53.637Z,97541.78
2022-12-23T03:30:57.304Z,97545.44
2022-12-23T03:32:00.425Z,97545.78
2022-12-23T03:33:04.547Z,97551.09
2022-12-23T03:34:08.025Z,97547.75
2022-12-23T03:35:11.137Z,97548.88
2022-12-23T03:36:19.393Z,97545.22
2022-12-23T03:37:22.310Z,97548.88
2022-12-23T03:38:23.942Z,97552.84
2022-12-23T03:39:34.290Z,97549.09
2022-12-23T03:40:41.379Z,97550.09
2022-12-23T03:41:45.162Z,97553.97
2022-12-23T03:42:48.594Z,97555.84
2022-12-23T03:43:53.449Z,97556.84
2022-12-23T03:45:19.700Z,97563.25
2022-12-23T03:46:30.556Z,97558.94
2022-12-23T03:47:34.046Z,97567.34
2022-12-23T03:48:41.499Z,97565.81
2022-12-23T03:49:46.298Z,97563.38
2022-12-23T03:50:49.950Z,97569.34
2022-12-23T03:51:58.747Z,97564.34
2022-12-23T03:53:18.567Z,97569.56
2022-12-23T03:54:24.401Z,97567.91
2022-12-23T03:55:29.282Z,97575.09
2022-12-23T03:56:48.559Z,97569.78
2022-12-23T03:58:00.324Z,97575.75
2022-12-23T03:59:06.395Z,97573.66
2022-12-23T04:00:07.933Z,97572.53
2022-12-23T04:01:18.461Z,97583.50
2022-12-23T04:02:31.560Z,97586.81
2022-12-23T04:03:38.901Z,97582.94
2022-12-23T04:04:49.635Z,97586.94
2022-12-23T04:05:57.466Z,97591.69
2022-12-23T04:07:07.219Z,97591.59
2022-12-23T04:08:13.521Z,97591.13
2022-12-23T04:09:21.735Z,97589.47
2022-12-23T04:10:24.213Z,97590.44
2022-12-23T04:11:25.544Z,97595.44
2022-12-23T04:12:27.263Z,97596.53
2022-12-23T04:13:28.761Z,97592.66
2022-12-23T04:14:30.204Z,97587.34
2022-12-23T04:15:31.536Z,97588.13
2022-12-23T04:16:34.224Z,97582.69
2022-12-23T04:17:35.560Z,97584.28
2022-12-23T04:18:36.828Z,97589.56
2022-12-23T04:19:38.044Z,97587.91
2022-12-23T04:20:39.250Z,97581.63
2022-12-23T04:21:40.462Z,97589.44
2022-12-23T04:22:41.717Z,97589.75
2022-12-23T04:23:43.023Z,97581.50
2022-12-23T04:24:44.265Z,97593.66
2022-12-23T04:25:45.530Z,97588.69
2022-12-23T04:26:46.857Z,97579.47
2022-12-23T04:27:48.077Z,97581.03
2022-12-23T04:28:49.275Z,97581.03
2022-12-23T04:29:50.486Z,97592.88
2022-12-23T04:30:51.701Z,97593.44
2022-12-23T04:31:53.056Z,97601.75
2022-12-23T04:32:54.386Z,97597.06
2022-12-23T04:33:55.680Z,97603.94
2022-12-23T04:34:57.125Z,97602.84
2022-12-23T04:36:01.406Z,97601.63
2022-12-23T04:37:02.737Z,97593.22
2022-12-23T04:38:04.193Z,97595.41
2022-12-23T04:39:05.395Z,97594.50
2022-12-23T04:40:06.877Z,97599.03
2022-12-23T04:41:08.154Z,97594.63
2022-12-23T04:42:09.420Z,97602.16
2022-12-23T04:43:10.617Z,97600.16
2022-12-23T04:44:11.824Z,97595.19
2022-12-23T04:45:13.040Z,97603.44
2022-12-23T04:46:14.322Z,97606.09
2022-12-23T04:47:15.608Z,97608.00
2022-12-23T04:48:17.098Z,97604.91
2022-12-23T04:49:18.350Z,97609.09
2022-12-23T04:50:19.615Z,97614.19
2022-12-23T04:51:20.870Z,97615.50
2022-12-23T04:52:22.241Z,97616.94
2022-12-23T04:53:23.440Z,97616.84
2022-12-23T04:54:24.689Z,97613.72
2022-12-23T04:55:25.919Z,97604.22
2022-12-23T04:56:27.175Z,97607.50
2022-12-23T04:57:28.500Z,97615.03
2022-12-23T04:58:29.724Z,97612.72
2022-12-23T04:59:31.191Z,97612.88
2022-12-23T05:00:38.920Z,97613.63
2022-12-23T05:01:41.034Z,97614.06
2022-12-23T05:02:42.508Z,97620.47
2022-12-23T05:03:43.787Z,97625.38
2022-12-23T05:04:45.088Z,97623.97
2022-12-23T05:05:46.688Z,97631.59
2022-12-23T05:06:47.981Z,97631.47
2022-12-23T05:07:49.967Z,97637.75
2022-12-23T05:08:51.255Z,97628.56
2022-12-23T05:09:52.505Z,97625.78
2022-12-23T05:10:53.998Z,97630.78
2022-12-23T05:11:55.228Z,97642.81
2022-12-23T05:12:56.459Z,97630.97
2022-12-23T05:13:57.722Z,97629.88
2022-12-23T05:14:58.961Z,97630.19
2022-12-23T05:16:00.274Z,97631.63
2022-12-23T05:17:07.076Z,97637.72
2022-12-23T05:18:08.785Z,97637.38
2022-12-23T05:19:10.351Z,97639.28
2022-12-23T05:20:11.630Z,97640.03
2022-12-23T05:21:12.950Z,97632.09
2022-12-23T05:22:14.180Z,97645.03
2022-12-23T05:23:15.637Z,97645.81
2022-12-23T05:24:16.865Z,97647.22
2022-12-23T05:25:18.096Z,97644.91
2022-12-23T05:26:19.379Z,97643.81
2022-12-23T05:27:20.641Z,97639.94
2022-12-23T05:28:22.629Z,97646.44
2022-12-23T05:29:23.903Z,97644.13
2022-12-23T05:30:25.277Z,97641.59
2022-12-23T05:31:26.546Z,97645.81
2022-12-23T05:32:27.841Z,97656.72
2022-12-23T05:33:29.546Z,97657.06
2022-12-23T05:34:30.841Z,97652.19
2022-12-23T05:35:32.116Z,97654.09
2022-12-23T05:36:33.406Z,97643.03
2022-12-23T05:37:34.655Z,97653.63
2022-12-23T05:38:35.896Z,97641.03
2022-12-23T05:39:37.126Z,97645.13
2022-12-23T05:40:38.373Z,97647.31
2022-12-23T05:41:39.902Z,97640.13
2022-12-23T05:42:41.310Z,97639.69
2022-12-23T05:43:42.703Z,97638.91
2022-12-23T05:44:43.944Z,97646.22
2022-12-23T05:45:45.583Z,97645.41
2022-12-23T05:46:46.837Z,97650.41
2022-12-23T05:47:48.195Z,97648.41
2022-12-23T05:48:49.483Z,97658.25
2022-12-23T05:49:50.723Z,97659.34
2022-12-23T05:50:52.907Z,97662.78
2022-12-23T05:51:54.140Z,97661.53
2022-12-23T05:52:55.442Z,97665.00
2022-12-23T05:53:56.734Z,97655.47
2022-12-23T05:54:57.979Z,97655.47
2022-12-23T05:55:59.190Z,97667.50
2022-12-23T05:57:00.398Z,97669.69
2022-12-23T05:58:02.083Z,97661.44
2022-12-23T05:59:03.296Z,97668.63
2022-12-23T06:00:04.743Z,97665.16
2022-12-23T06:01:13.625Z,97663.63
2022-12-23T06:02:15.173Z,97653.47
2022-12-23T06:03:16.640Z,97663.31
2022-12-23T06:04:18.238Z,97655.78
2022-12-23T06:05:19.516Z,97662.22
2022-12-23T06:06:20.728Z,97655.47
2022-12-23T06:07:22.015Z,97663.13
2022-12-23T06:08:23.282Z,97665.44
2022-12-23T06:09:24.534Z,97662.00
2022-12-23T06:10:25.789Z,97668.84
2022-12-23T06:11:27.293Z,97664.78
2022-12-23T06:12:28.569Z,97667.75
2022-12-23T06:13:29.904Z,97666.97
2022-12-23T06:14:31.158Z,97666.34
2022-12-23T06:15:32.407Z,97664.00
2022-12-23T06:16:33.758Z,97661.66
2022-12-23T06:17:35.081Z,97665.09
2022-12-23T06:18:36.378Z,97672.63
2022-12-23T06:19:37.646Z,97667.66
2022-12-23T06:20:38.905Z,97671.06
2022-12-23T06:21:40.139Z,97671.84
2022-12-23T06:22:41.351Z,97668.41
2022-12-23T06:23:42.541Z,97674.03
2022-12-23T06:24:44.329Z,97675.91
2022-12-23T06:25:45.593Z,97676.38
2022-12-23T06:26:48.092Z,97679.34
2022-12-23T06:27:52.106Z,97679.47
2022-12-23T06:28:53.424Z,97678.25
2022-12-23T06:29:54.707Z,97683.56
2022-12-23T06:30:56.621Z,97680.91
2022-12-23T06:31:57.985Z,97687.28
2022-12-23T06:32:59.307Z,97676.25
2022-12-23T06:34:00.517Z,97686.84
2022-12-23T06:35:01.796Z,97687.97
2022-12-23T06:36:03.155Z,97684.97
2022-12-23T06:37:04.392Z,97686.09
2022-12-23T06:38:11.681Z,97689.84
2022-12-23T06:39:13.393Z,97688.25
2022-12-23T06:40:14.671Z,97679.88
2022-12-23T06:41:15.937Z,97683.63
2022-12-23T06:42:17.188Z,97684.53
2022-12-23T06:43:19.408Z,97687.19
2022-12-23T06:44:20.830Z,97685.16
2022-12-23T06:45:25.186Z,97691.59
2022-12-23T06:46:26.456Z,97688.16
2022-12-23T06:47:27.717Z,97691.88
2022-12-23T06:48:29.024Z,97688.47
2022-12-23T06:49:30.240Z,97690.69
2022-12-23T06:50:31.477Z,97690.69
2022-12-23T06:51:32.918Z,97696.41
2022-12-23T06:52:34.315Z,97688.78
2022-12-23T06:53:35.543Z,97692.56
2022-12-23T06:54:36.765Z,97683.50
2022-12-23T06:55:38.221Z,97692.22
2022-12-23T06:56:39.726Z,97687.25
2022-12-23T06:57:41.264Z,97692.22
2022-12-23T06:58:42.517Z,97698.63
2022-12-23T06:59:43.784Z,97704.72
2022-12-23T07:00:45.085Z,97697.53
2022-12-23T07:01:46.483Z,97698.78
2022-12-23T07:02:48.046Z,97704.19
2022-12-23T07:03:49.829Z,97708.72
2022-12-23T07:04:51.163Z,97701.09
2022-12-23T07:05:52.995Z,97705.63
2022-12-23T07:06:54.204Z,97708.28
2022-12-23T07:07:57.133Z,97698.78
2022-12-23T07:08:58.445Z,97701.72
2022-12-23T07:09:59.673Z,97702.97
2022-12-23T07:11:01.551Z,97701.44
2022-12-23T07:12:03.318Z,97696.41
2022-12-23T07:13:04.601Z,97696.41
2022-12-23T07:14:05.843Z,97702.84
2022-12-23T07:15:07.389Z,97703.59
2022-12-23T07:16:09.179Z,97706.25
2022-12-23T07:17:10.565Z,97705.03
2022-12-23T07:18:11.904Z,97702.38
2022-12-23T07:19:13.171Z,97699.75
2022-12-23T07:20:14.521Z,97697.09
2022-12-23T07:21:26.437Z,97699.75
2022-12-23T07:22:30.083Z,97706.59
2022-12-23T07:23:31.404Z,97708.13
2022-12-23T07:24:32.695Z,97699.84
2022-12-23T07:25:33.926Z,97703.31
2022-12-23T07:26:35.204Z,97706.41
2022-12-23T07:27:36.698Z,97699.53
2022-12-23T07:28:37.965Z,97699.22
2022-12-23T07:29:39.232Z,97698.44
2022-12-23T07:30:40.453Z,97695.78
2022-12-23T07:31:41.762Z,97706.41
2022-12-23T07:32:43.097Z,97699.53
2022-12-23T07:33:44.357Z,97699.22
2022-12-23T07:34:45.581Z,97709.38
2022-12-23T07:35:46.828Z,97714.69
2022-12-23T07:36:48.164Z,97715.75
2022-12-23T07:37:53.021Z,97713.09
2022-12-23T07:38:54.291Z,97715.00
2022-12-23T07:39:55.534Z,97709.38
2022-12-23T07:40:56.766Z,97709.38
2022-12-23T07:42:24.887Z,97711.25
2022-12-23T07:43:19.218Z,97710.16
2022-12-23T07:44:20.427Z,97708.28
2022-12-23T07:45:21.688Z,97710.94
2022-12-23T07:46:22.976Z,97712.47
2022-12-23T07:47:24.289Z,97706.41
2022-12-23T07:48:25.495Z,97710.59
2022-12-23T07:49:26.751Z,97706.06
2022-12-23T07:50:28.302Z,97706.06
2022-12-23T07:51:29.556Z,97708.72
2022-12-23T07:52:30.822Z,97705.28
2022-12-23T07:53:32.049Z,97708.72
2022-12-23T07:54:33.298Z,97701.88
2022-12-23T07:55:34.576Z,97707.94
2022-12-23T07:56:35.788Z,97714.50
2022-12-23T07:57:37.029Z,97715.25
2022-12-23T07:58:38.323Z,97714.50
2022-12-23T07:59:39.593Z,97719.47
2022-12-23T08:00:40.841Z,97721.34
2022-12-23T08:01:42.253Z,97717.91
2022-12-23T08:02:43.778Z,97728.53
2022-12-23T08:03:45.563Z,97722.44
2022-12-23T08:04:46.878Z,97726.66
2022-12-23T08:05:48.336Z,97725.53
2022-12-23T08:06:49.571Z,97732.41
2022-12-23T08:07:51.339Z,97728.97
2022-12-23T08:08:52.593Z,97734.59
2022-12-23T08:09:53.870Z,97731.63
2022-12-23T08:10:59.246Z,97730.84
2022-12-23T08:12:00.521Z,97736.72
2022-12-23T08:13:01.759Z,97740.50
2022-12-23T08:14:03.024Z,97752.97
2022-12-23T08:15:04.571Z,97755.63
2022-12-23T08:16:06.424Z,97744.59
2022-12-23T08:17:07.856Z,97746.13
2022-12-23T08:18:09.222Z,97740.50
2022-12-23T08:19:10.912Z,97743.00
2022-12-23T08:20:12.956Z,97739.38
2022-12-23T08:21:15.584Z,97736.28
2022-12-23T08:22:16.858Z,97737.22
2022-12-23T08:23:24.402Z,97737.50
2022-12-23T08:24:25.998Z,97728.91
2022-12-23T08:25:27.222Z,97736.88
2022-12-23T08:26:28.554Z,97741.75
2022-12-23T08:27:29.868Z,97736.66
2022-12-23T08:28:31.503Z,97731.50
2022-12-23T08:29:36.354Z,97744.00
2022-12-23T08:30:38.179Z,97744.00
2022-12-23T08:31:39.475Z,97742.13
2022-12-23T08:32:40.747Z,97747.44
2022-12-23T08:33:42.750Z,97739.91
2022-12-23T08:34:44.036Z,97737.25
2022-12-23T08:35:45.301Z,97732.41
2022-12-23T08:36:46.989Z,97740.38
2022-12-23T08:37:51.301Z,97733.97
2022-12-23T08:38:53.975Z,97728.66
2022-12-23T08:39:55.251Z,97731.31
2022-12-23T08:40:56.537Z,97732.06
2022-12-23T08:41:58.108Z,97734.72
2022-12-23T08:42:59.327Z,97733.28
2022-12-23T08:44:00.728Z,97722.69
2022-12-23T08:45:02.012Z,97723.91
2022-12-23T08:46:03.871Z,97721.69
2022-12-23T08:47:05.308Z,97717.63
2022-12-23T08:48:06.614Z,97715.75
2022-12-23T08:49:08.802Z,97719.31
2022-12-23T08:50:10.145Z,97714.00
2022-12-23T08:51:13.245Z,97714.13
2022-12-23T08:52:14.581Z,97716.59
2022-12-23T08:53:15.839Z,97722.75
2022-12-23T08:54:17.092Z,97725.25
2022-12-23T08:55:18.450Z,97722.38
2022-12-23T08:56:21.404Z,97729.25
2022-12-23T08:57:22.667Z,97728.91
2022-12-23T08:58:23.917Z,97732.00
2022-12-23T08:59:25.177Z,97724.03
2022-12-23T09:00:26.433Z,97732.38
2022-12-23T09:01:28.931Z,97734.69
2022-12-23T09:02:30.513Z,97727.50
2022-12-23T09:03:32.005Z,97726.13
2022-12-23T09:04:33.406Z,97730.31
2022-12-23T09:05:39.049Z,97731.84
2022-12-23T09:06:41.564Z,97734.50
2022-12-23T09:07:42.978Z,97740.25
2022-12-23T09:08:45.894Z,97738.41
2022-12-23T09:09:49.962Z,97729.63
2022-12-23T09:10:51.334Z,97735.75
2022-12-23T09:11:52.593Z,97746.03
2022-12-23T09:12:56.961Z,97739.97
2022-12-23T09:14:00.099Z,97747.94
2022-12-23T09:15:01.429Z,97737.59
2022-12-23T09:16:02.974Z,97744.94
2022-12-23T09:17:04.237Z,97745.28
2022-12-23T09:18:05.520Z,97744.94
2022-12-23T09:19:06.804Z,97747.59
2022-12-23T09:20:08.438Z,97740.72
2022-12-23T09:21:17.352Z,97742.63
2022-12-23T09:22:18.627Z,97746.38
2022-12-23T09:23:19.869Z,97742.63
2022-12-23T09:24:21.119Z,97748.22
2022-12-23T09:25:22.351Z,97743.72
2022-12-23T09:26:27.795Z,97736.97
2022-12-23T09:27:29.060Z,97736.31
2022-12-23T09:28:30.325Z,97729.47
2022-12-23T09:29:31.576Z,97740.84
2022-12-23T09:30:32.913Z,97736.63
2022-12-23T09:31:37.223Z,97740.84
2022-12-23T09:32:39.173Z,97733.66
2022-12-23T09:33:42.148Z,97730.66
2022-12-23T09:34:43.409Z,97730.31
2022-12-23T09:35:44.782Z,97722.03
2022-12-23T09:36:49.116Z,97715.63
2022-12-23T09:37:53.129Z,97728.13
2022-12-23T09:38:57.476Z,97717.63
2022-12-23T09:39:59.073Z,97710.75
2022-12-23T09:41:26.956Z,97713.72
2022-12-23T09:42:40.839Z,97709.97
2022-12-23T09:43:48.404Z,97707.78
2022-12-23T09:44:59.542Z,97703.22
2022-12-23T09:46:18.743Z,97701.00
2022-12-23T09:47:24.321Z,97698.81
2022-12-23T09:48:28.298Z,97695.81
2022-12-23T09:49:33.631Z,97707.66
2022-12-23T09:50:35.225Z,97706.22
2022-12-23T09:51:36.544Z,97714.31
2022-12-23T09:52:42.966Z,97714.75
2022-12-23T09:53:44.240Z,97712.22
2022-12-23T09:54:49.928Z,97714.19
2022-12-23T09:55:57.268Z,97712.00
2022-12-23T09:57:18.757Z,97703.34
2022-12-23T09:58:31.653Z,97701.47
2022-12-23T09:59:32.888Z,97701.91
2022-12-23T10:00:38.964Z,97704.22
2022-12-23T10:01:58.320Z,97705.00
2022-12-23T10:02:59.998Z,97699.69
2022-12-23T10:04:20.245Z,97701.25
2022-12-23T10:05:24.362Z,97697.03
2022-12-23T10:06:27.190Z,97702.34
2022-12-23T10:07:28.453Z,97698.13
2022-12-23T10:08:29.739Z,97691.63
2022-12-23T10:09:32.839Z,97693.16
2022-12-23T10:10:44.933Z,97699.25
2022-12-23T10:11:47.545Z,97687.06
2022-12-23T10:12:50.702Z,97692.69
2022-12-23T10:14:10.577Z,97687.72
2022-12-23T10:15:25.712Z,97689.19
2022-12-23T10:16:34.383Z,97692.59
2022-12-23T10:17:39.292Z,97691.06
2022-12-23T10:18:55.503Z,97683.88
2022-12-23T10:19:59.540Z,97678.84
2022-12-23T10:21:05.869Z,97680.75
2022-12-23T10:22:09.966Z,97678.84
2022-12-23T10:23:16.216Z,97682.75
2022-12-23T10:24:23.724Z,97683.94
2022-12-23T10:25:33.221Z,97681.28
2022-12-23T10:26:39.307Z,97682.06
2022-12-23T10:27:41.658Z,97682.88
2022-12-23T10:28:43.823Z,97683.19
2022-12-23T10:29:45.107Z,97687.72
2022-12-23T10:32:41.442Z,97682.41
2022-12-23T10:33:48.839Z,97683.94
2022-12-23T10:34:50.063Z,97676.75
2022-12-23T10:35:51.313Z,97677.56
2022-12-23T10:36:57.491Z,97672.66
2022-12-23T10:38:12.906Z,97669.66
2022-12-23T10:39:34.474Z,97670.13
2022-12-23T10:41:08.889Z,97673.22
2022-12-23T10:42:25.610Z,97669.44
2022-12-23T10:43:26.853Z,97665.69
2022-12-23T10:44:28.068Z,97661.81
2022-12-23T10:45:47.628Z,97658.38
2022-12-23T10:46:54.974Z,97651.72
2022-12-23T10:48:15.047Z,97657.03
2022-12-23T10:49:35.308Z,97653.59
2022-12-23T10:50:55.409Z,97648.28
2022-12-23T10:51:58.779Z,97646.72
2022-12-23T10:53:03.006Z,97642.19
2022-12-23T10:54:12.805Z,97644.84
2022-12-23T10:55:24.277Z,97645.97
2022-12-23T10:56:28.763Z,97635.97
2022-12-23T10:57:32.178Z,97643.63
2022-12-23T10:58:38.914Z,97638.00
2022-12-23T10:59:40.193Z,97638.75
2022-12-23T11:00:47.785Z,97644.50
2022-12-23T11:01:52.965Z,97643.72
2022-12-23T11:03:17.601Z,97639.53
2022-12-23T11:04:36.494Z,97634.88
2022-12-23T11:05:41.536Z,97634.88
2022-12-23T11:06:44.425Z,97636.09
2022-12-23T11:07:46.925Z,97632.22
2022-12-23T11:08:48.541Z,97630.00
2022-12-23T11:10:01.119Z,97636.09
2022-12-23T11:11:02.374Z,97623.16
2022-12-23T11:12:10.452Z,97626.88
2022-12-23T11:13:25.303Z,97630.00
2022-12-23T11:14:30.820Z,97624.69
2022-12-23T11:15:39.246Z,97619.38
2022-12-23T11:16:45.360Z,97614.81
2022-12-23T11:17:57.053Z,97615.59
2022-12-23T11:18:58.328Z,97608.75
2022-12-23T11:20:13.505Z,97608.03
2022-12-23T11:21:14.874Z,97610.28
2022-12-23T11:22:23.604Z,97612.50
2022-12-23T11:23:26.420Z,97607.19
2022-12-23T11:24:28.694Z,97607.63
2022-12-23T11:25:43.294Z,97604.84
2022-12-23T11:26:49.829Z,97606.97
2022-12-23T11:27:54.506Z,97605.09
2022-12-23T11:28:59.175Z,97607.75
2022-12-23T11:30:16.985Z,97608.09
2022-12-23T11:31:28.365Z,97592.91
2022-12-23T11:32:36.410Z,97592.13
2022-12-23T11:33:40.014Z,97594.78
2022-12-23T11:34:44.437Z,97587.16
2022-12-23T11:35:45.781Z,97590.91
2022-12-23T11:36:58.681Z,97584.50
2022-12-23T11:38:12.869Z,97575.72
2022-12-23T11:39:14.299Z,97575.31
2022-12-23T11:40:26.858Z,97579.50
2022-12-23T11:41:33.550Z,97574.97
2022-12-23T11:42:34.981Z,97582.63
2022-12-23T11:43:38.853Z,97579.97
2022-12-23T11:44:42.777Z,97574.97
2022-12-23T11:45:44.113Z,97578.72
2022-12-23T11:46:45.699Z,97577.19
2022-12-23T11:47:47.091Z,97580.19
2022-12-23T11:48:54.401Z,97578.38
2022-12-23T11:49:57.474Z,97573.53
2022-12-23T11:51:02.841Z,97572.31
2022-12-23T11:52:07.181Z,97570.41
2022-12-23T11:53:11.306Z,97574.19
2022-12-23T11:54:16.985Z,97564.66
2022-12-23T11:55:25.738Z,97560.47
2022-12-23T11:56:27.654Z,97565.78
2022-12-23T11:57:37.152Z,97565.78
2022-12-23T11:58:45.587Z,97567.22
2022-12-23T11:59:48.333Z,97565.34
2022-12-23T12:00:56.171Z,97554.69
2022-12-23T12:01:59.171Z,97560.38
2022-12-23T12:03:02.035Z,97553.16
2022-12-23T12:04:06.072Z,97545.94
2022-12-23T12:05:16.487Z,97542.88
2022-12-23T12:06:19.052Z,97544.06
2022-12-23T12:07:20.632Z,97533.00
2022-12-23T12:08:25.664Z,97531.78
2022-12-23T12:09:28.495Z,97531.47
2022-12-23T12:10:31.712Z,97527.69
2022-12-23T12:11:41.320Z,97514.41
2022-12-23T12:12:42.746Z,97528.47
2022-12-23T12:13:48.243Z,97515.94
2022-12-23T12:14:54.094Z,97517.06
2022-12-23T12:15:55.271Z,97512.88
2022-12-23T12:17:04.761Z,97512.88
2022-12-23T12:18:08.646Z,97513.63
2022-12-23T12:19:19.114Z,97510.19
2022-12-23T12:20:20.371Z,97504.88
2022-12-23T12:21:24.508Z,97506.44
2022-12-23T12:22:40.164Z,97507.19
2022-12-23T12:24:17.175Z,97498.88
2022-12-23T12:25:25.200Z,97502.00
2022-12-23T12:26:28.263Z,97499.00
2022-12-23T12:27:37.935Z,97503.19
2022-12-23T12:28:41.967Z,97493.31
2022-12-23T12:29:56.937Z,97493.31
2022-12-23T12:31:03.429Z,97497.22
2022-12-23T12:32:09.684Z,97494.19
2022-12-23T12:33:30.710Z,97496.84
2022-12-23T12:34:43.867Z,97496.53
2022-12-23T12:35:53.870Z,97490.47